Time;durP1;ratioP1;P1;durP2;ratioP2;P2;SDS_P1;SDS_P2;PMS_P1;PMS_P2;Temp;Humidity;BMP_temperature;BMP_pressure;BME280_temperature;BME280_humidity;BME280_pressure;Samples;Min_cycle;Max_cycle;Signal;HPM_P1;HPM_P2
2023/05/11 00:00:39;;;;;;;;;4.00;3.00;;;;;;;;4996507;28;45403;-69
2023/05/11 00:03:05;;;;;;;;;5.75;4.50;;;;;;;;4996623;28;45329;-68
2023/05/11 00:05:30;;;;;;;;;4.25;2.75;;;;;;;;4996268;28;45406;-69
2023/05/11 00:07:55;;;;;;;;;5.00;3.75;;;;;;;;4996129;28;46150;-69
2023/05/11 00:10:20;;;;;;;;;5.00;5.00;;;;;;;;4996078;28;45504;-70
2023/05/11 00:12:46;;;;;;;;;3.75;3.25;;;;;;;;4996175;28;45503;-70
2023/05/11 00:15:11;;;;;;;;;5.25;4.00;;;;;;;;4996362;28;45371;-71
2023/05/11 00:17:36;;;;;;;;;3.00;3.00;;;;;;;;4995669;28;46282;-71
2023/05/11 00:20:02;;;;;;;;;7.25;4.75;;;;;;;;4995471;28;45489;-70
2023/05/11 00:22:27;;;;;;;;;5.50;5.00;;;;;;;;4995696;28;45331;-70
2023/05/11 00:24:52;;;;;;;;;4.00;4.00;;;;;;;;4994685;28;45316;-69
2023/05/11 00:27:18;;;;;;;;;4.67;3.33;;;;;;;;4995897;28;46804;-71
2023/05/11 00:29:43;;;;;;;;;5.50;3.75;;;;;;;;4995790;28;45397;-71
2023/05/11 00:32:08;;;;;;;;;3.00;3.00;;;;;;;;4995553;28;45295;-71
2023/05/11 00:34:33;;;;;;;;;4.50;4.50;;;;;;;;4995784;28;45400;-71
2023/05/11 00:36:58;;;;;;;;;5.75;5.00;;;;;;;;4994402;28;48161;-71
2023/05/11 00:39:24;;;;;;;;;4.50;3.25;;;;;;;;4995885;28;45427;-71
2023/05/11 00:41:49;;;;;;;;;4.25;3.50;;;;;;;;4995930;28;45478;-70
2023/05/11 00:44:14;;;;;;;;;2.00;2.00;;;;;;;;4995759;28;45404;-70
2023/05/11 00:46:39;;;;;;;;;3.75;3.00;;;;;;;;4995207;28;47378;-70
2023/05/11 00:49:05;;;;;;;;;2.00;2.00;;;;;;;;4995944;28;45342;-71
2023/05/11 00:51:31;;;;;;;;;4.00;2.75;;;;;;;;4994517;28;45467;-71
2023/05/11 00:53:57;;;;;;;;;4.50;3.50;;;;;;;;4995772;28;45395;-71
2023/05/11 00:56:22;;;;;;;;;2.00;2.00;;;;;;;;4993784;28;48435;-70
2023/05/11 00:58:48;;;;;;;;;2.00;2.00;;;;;;;;4995496;28;45313;-70
2023/05/11 01:01:16;;;;;;;;;3.00;2.00;;;;;;;;4995669;28;45386;-70
2023/05/11 01:03:41;;;;;;;;;2.00;2.00;;;;;;;;4995163;28;45416;-70
2023/05/11 01:06:33;;;;;;;;;2.25;2.25;;;;;;;;4994743;28;45610;-70
2023/05/11 01:09:02;;;;;;;;;4.33;3.67;;;;;;;;4993133;28;45407;-70
2023/05/11 01:11:30;;;;;;;;;3.00;3.00;;;;;;;;4995377;28;45442;-70
2023/05/11 01:14:01;;;;;;;;;4.00;1.25;;;;;;;;4995433;28;45392;-70
2023/05/11 01:16:28;;;;;;;;;1.00;1.00;;;;;;;;4994667;28;45456;-70
2023/05/11 01:19:08;;;;;;;;;3.25;3.00;;;;;;;;4995062;28;45453;-70
2023/05/11 01:21:34;;;;;;;;;5.75;3.00;;;;;;;;4995350;28;45405;-70
2023/05/11 01:24:12;;;;;;;;;2.25;2.00;;;;;;;;4995109;28;45541;-70
2023/05/11 01:26:49;;;;;;;;;3.00;2.00;;;;;;;;4994853;28;46991;-70
2023/05/11 01:29:21;;;;;;;;;1.00;1.00;;;;;;;;4994860;28;45384;-70
2023/05/11 01:31:47;;;;;;;;;6.25;3.75;;;;;;;;4996698;28;45374;-70
2023/05/11 01:34:18;;;;;;;;;3.00;1.25;;;;;;;;4982672;28;45313;-70
2023/05/11 01:36:51;;;;;;;;;1.00;1.00;;;;;;;;4981693;28;47216;-70
2023/05/11 01:39:19;;;;;;;;;2.00;2.00;;;;;;;;4981532;28;45307;-71
2023/05/11 01:41:47;;;;;;;;;4.25;2.00;;;;;;;;4982292;28;45299;-70
2023/05/11 01:44:13;;;;;;;;;4.25;2.25;;;;;;;;4994375;28;45266;-70
2023/05/11 01:46:39;;;;;;;;;3.75;2.75;;;;;;;;5001233;28;45402;-70
2023/05/11 01:49:06;;;;;;;;;4.50;2.00;;;;;;;;5001463;28;45764;-70
2023/05/11 01:51:41;;;;;;;;;2.00;2.00;;;;;;;;5001763;28;45515;-70
2023/05/11 01:54:06;;;;;;;;;1.00;1.00;;;;;;;;5000024;28;45494;-70
2023/05/11 01:56:32;;;;;;;;;1.00;1.00;;;;;;;;5000940;28;45291;-69
2023/05/11 01:58:58;;;;;;;;;2.00;2.00;;;;;;;;5001269;28;45510;-70
2023/05/11 02:01:25;;;;;;;;;2.00;2.00;;;;;;;;5001531;28;45260;-70
2023/05/11 02:03:50;;;;;;;;;4.00;2.75;;;;;;;;5001411;28;45418;-70
2023/05/11 02:06:17;;;;;;;;;1.00;1.00;;;;;;;;5000979;28;45430;-70
2023/05/11 02:08:43;;;;;;;;;1.00;1.00;;;;;;;;5001092;28;45406;-71
2023/05/11 02:11:10;;;;;;;;;1.50;1.50;;;;;;;;5001423;28;45362;-71
2023/05/11 02:13:37;;;;;;;;;1.75;1.75;;;;;;;;5000783;28;45992;-70
2023/05/11 02:16:04;;;;;;;;;1.33;1.33;;;;;;;;5001074;28;46400;-71
2023/05/11 02:18:30;;;;;;;;;2.00;1.67;;;;;;;;5001058;28;45469;-70
2023/05/11 02:20:57;;;;;;;;;4.00;3.00;;;;;;;;5001058;28;45438;-70
2023/05/11 02:23:23;;;;;;;;;1.00;1.00;;;;;;;;5001057;28;45495;-70
2023/05/11 02:25:50;;;;;;;;;1.00;1.00;;;;;;;;5000577;28;45461;-70
2023/05/11 02:28:15;;;;;;;;;1.67;1.67;;;;;;;;5000941;28;45363;-70
2023/05/11 02:30:44;;;;;;;;;3.00;1.00;;;;;;;;5000777;28;45435;-70
2023/05/11 02:33:13;;;;;;;;;1.00;0.00;;;;;;;;5001000;28;45520;-71
2023/05/11 02:35:41;;;;;;;;;1.50;1.50;;;;;;;;5000450;28;45689;-70
2023/05/11 02:38:08;;;;;;;;;1.00;1.00;;;;;;;;5000660;28;45488;-69
2023/05/11 02:40:38;;;;;;;;;2.00;1.00;;;;;;;;5001117;28;45452;-70
2023/05/11 02:43:08;;;;;;;;;3.00;3.00;;;;;;;;4999825;28;45375;-71
2023/05/11 02:45:34;;;;;;;;;0.00;0.00;;;;;;;;4996841;28;45413;-70
2023/05/11 02:48:00;;;;;;;;;5.00;2.00;;;;;;;;4997488;28;45352;-71
2023/05/11 02:50:29;;;;;;;;;2.00;2.00;;;;;;;;4997790;28;45389;-70
2023/05/11 02:52:55;;;;;;;;;1.33;1.33;;;;;;;;4996787;28;45434;-72
2023/05/11 02:55:21;;;;;;;;;0.00;0.00;;;;;;;;4996436;28;46505;-71
2023/05/11 02:57:47;;;;;;;;;3.00;1.00;;;;;;;;4996264;28;45412;-71
2023/05/11 03:00:12;;;;;;;;;4.00;1.50;;;;;;;;4996953;28;45301;-71
2023/05/11 03:02:38;;;;;;;;;1.50;1.50;;;;;;;;4997189;28;45503;-70
2023/05/11 03:05:03;;;;;;;;;1.75;1.75;;;;;;;;4995877;28;48654;-70
2023/05/11 03:07:28;;;;;;;;;2.00;2.00;;;;;;;;4997279;28;45450;-70
2023/05/11 03:09:54;;;;;;;;;1.50;1.00;;;;;;;;4997554;28;45467;-70
2023/05/11 03:12:20;;;;;;;;;1.00;1.00;;;;;;;;4997338;28;45424;-71
2023/05/11 03:14:46;;;;;;;;;3.67;2.00;;;;;;;;4997103;28;45976;-71
2023/05/11 03:17:12;;;;;;;;;1.00;1.00;;;;;;;;4997174;28;45435;-71
2023/05/11 03:19:37;;;;;;;;;3.25;2.00;;;;;;;;4979053;28;45376;-70
2023/05/11 03:22:03;;;;;;;;;2.00;2.00;;;;;;;;4997155;28;45438;-71
2023/05/11 03:24:29;;;;;;;;;2.00;0.00;;;;;;;;4996750;28;47191;-71
2023/05/11 03:26:55;;;;;;;;;1.00;1.00;;;;;;;;4995367;28;45382;-71
2023/05/11 03:29:21;;;;;;;;;1.00;1.00;;;;;;;;4996851;28;45336;-71
2023/05/11 03:31:47;;;;;;;;;1.00;1.00;;;;;;;;4996907;28;45547;-71
2023/05/11 03:34:12;;;;;;;;;1.00;1.00;;;;;;;;4996599;28;45643;-71
2023/05/11 03:36:38;;;;;;;;;0.33;0.33;;;;;;;;4996897;28;45267;-71
2023/05/11 03:39:04;;;;;;;;;1.00;1.00;;;;;;;;4997099;28;45436;-70
2023/05/11 03:41:30;;;;;;;;;2.00;1.00;;;;;;;;4996863;28;45392;-71
2023/05/11 03:43:58;;;;;;;;;2.00;2.00;;;;;;;;4996336;28;46447;-71
2023/05/11 03:46:23;;;;;;;;;3.50;2.75;;;;;;;;4996058;28;45424;-70
2023/05/11 03:48:49;;;;;;;;;1.00;1.00;;;;;;;;4995776;28;45456;-70
2023/05/11 03:51:14;;;;;;;;;2.75;1.00;;;;;;;;4996524;28;45452;-71
2023/05/11 03:53:40;;;;;;;;;3.67;2.00;;;;;;;;4995717;28;46336;-70
2023/05/11 03:56:08;;;;;;;;;0.00;0.00;;;;;;;;4996093;28;45293;-71
2023/05/11 03:58:37;;;;;;;;;1.50;1.50;;;;;;;;4996634;28;45440;-70
2023/05/11 04:01:03;;;;;;;;;3.00;2.00;;;;;;;;4996494;28;45348;-70
2023/05/11 04:03:28;;;;;;;;;1.50;1.50;;;;;;;;4996189;28;46416;-70
2023/05/11 04:05:54;;;;;;;;;1.00;1.00;;;;;;;;4996305;28;45402;-70
2023/05/11 04:08:19;;;;;;;;;2.25;2.00;;;;;;;;4995992;28;45791;-70
2023/05/11 04:10:44;;;;;;;;;2.00;1.75;;;;;;;;4978671;28;45392;-70
2023/05/11 04:13:10;;;;;;;;;1.33;1.33;;;;;;;;4996231;28;45486;-70
2023/05/11 04:15:36;;;;;;;;;1.00;0.00;;;;;;;;4996112;28;45556;-70
2023/05/11 04:18:01;;;;;;;;;2.00;1.00;;;;;;;;4996338;28;45369;-71
2023/05/11 04:20:27;;;;;;;;;1.67;1.33;;;;;;;;4996107;28;45467;-70
2023/05/11 04:22:52;;;;;;;;;1.00;1.00;;;;;;;;4995955;28;46470;-71
2023/05/11 04:25:17;;;;;;;;;1.00;1.00;;;;;;;;4995810;28;45715;-70
2023/05/11 04:27:42;;;;;;;;;1.67;0.67;;;;;;;;4996466;28;45384;-71
2023/05/11 04:30:08;;;;;;;;;1.00;1.00;;;;;;;;4995972;28;45458;-71
2023/05/11 04:32:33;;;;;;;;;2.67;1.67;;;;;;;;4995631;28;45862;-70
2023/05/11 04:34:58;;;;;;;;;1.00;1.00;;;;;;;;4996051;28;45363;-70
2023/05/11 04:37:24;;;;;;;;;1.25;1.25;;;;;;;;4995421;28;45417;-70
2023/05/11 04:39:49;;;;;;;;;1.00;1.00;;;;;;;;4995994;28;45386;-71
2023/05/11 04:42:14;;;;;;;;;1.00;1.00;;;;;;;;4995849;28;46338;-70
2023/05/11 04:44:40;;;;;;;;;1.00;1.00;;;;;;;;4994263;28;45328;-70
2023/05/11 04:47:05;;;;;;;;;1.00;1.00;;;;;;;;4996058;28;45909;-70
2023/05/11 04:49:30;;;;;;;;;2.00;2.00;;;;;;;;4995854;28;45466;-71
2023/05/11 04:51:56;;;;;;;;;2.75;2.75;;;;;;;;4995684;28;45451;-70
2023/05/11 04:54:21;;;;;;;;;2.00;2.00;;;;;;;;4995259;28;45428;-71
2023/05/11 04:56:46;;;;;;;;;1.00;1.00;;;;;;;;4995398;28;45426;-70
2023/05/11 04:59:11;;;;;;;;;1.00;1.00;;;;;;;;4995887;28;45446;-70
2023/05/11 05:01:37;;;;;;;;;3.00;2.00;;;;;;;;4994212;28;48035;-70
2023/05/11 05:04:02;;;;;;;;;0.00;0.00;;;;;;;;4995734;28;45390;-70
2023/05/11 05:06:27;;;;;;;;;4.25;3.00;;;;;;;;4994526;28;45382;-71
2023/05/11 05:08:52;;;;;;;;;1.00;1.00;;;;;;;;4995148;28;45396;-71
2023/05/11 05:11:17;;;;;;;;;2.00;2.00;;;;;;;;4994575;28;46326;-71
2023/05/11 05:13:43;;;;;;;;;2.75;2.00;;;;;;;;4995223;28;45463;-71
2023/05/11 05:16:08;;;;;;;;;2.50;2.00;;;;;;;;4995331;28;45390;-71
2023/05/11 05:18:33;;;;;;;;;1.00;1.00;;;;;;;;4995519;28;45300;-70
2023/05/11 05:20:59;;;;;;;;;3.50;2.00;;;;;;;;4994549;28;47305;-71
2023/05/11 05:23:24;;;;;;;;;1.00;1.00;;;;;;;;4995367;28;45396;-71
2023/05/11 05:25:49;;;;;;;;;3.50;2.00;;;;;;;;4995089;28;45311;-70
2023/05/11 05:28:14;;;;;;;;;2.00;2.00;;;;;;;;4995091;28;45384;-71
2023/05/11 05:30:39;;;;;;;;;4.00;2.00;;;;;;;;4995129;28;45466;-71
2023/05/11 05:33:05;;;;;;;;;4.25;3.00;;;;;;;;4977414;28;45522;-72
2023/05/11 05:35:30;;;;;;;;;2.25;1.25;;;;;;;;4995177;28;45439;-72
2023/05/11 05:37:56;;;;;;;;;4.00;3.00;;;;;;;;4995289;28;45378;-72
2023/05/11 05:40:21;;;;;;;;;2.75;1.25;;;;;;;;4994818;28;45749;-72
2023/05/11 05:42:46;;;;;;;;;2.00;2.00;;;;;;;;4995131;28;45426;-72
2023/05/11 05:45:12;;;;;;;;;3.75;2.00;;;;;;;;4995018;28;45394;-72
2023/05/11 05:47:38;;;;;;;;;1.25;1.25;;;;;;;;4995198;28;45442;-71
2023/05/11 05:50:04;;;;;;;;;2.25;2.25;;;;;;;;4994184;28;46892;-72
2023/05/11 05:52:29;;;;;;;;;3.50;2.00;;;;;;;;4993227;28;45589;-72
2023/05/11 05:54:54;;;;;;;;;2.00;2.00;;;;;;;;4994365;28;45485;-72
2023/05/11 05:57:20;;;;;;;;;3.25;3.00;;;;;;;;4994394;28;45389;-72
2023/05/11 05:59:45;;;;;;;;;4.00;2.00;;;;;;;;4994628;28;45500;-72
2023/05/11 06:02:12;;;;;;;;;3.25;2.75;;;;;;;;4994281;28;45762;-72
2023/05/11 06:04:37;;;;;;;;;2.00;2.00;;;;;;;;4993828;28;45514;-71
2023/05/11 06:07:02;;;;;;;;;3.00;2.00;;;;;;;;4994061;28;45336;-72
2023/05/11 06:09:27;;;;;;;;;3.00;2.00;;;;;;;;4984828;28;47214;-72
2023/05/11 06:11:53;;;;;;;;;3.25;2.00;;;;;;;;4974412;28;45349;-72
2023/05/11 06:14:18;;;;;;;;;5.25;2.00;;;;;;;;4975154;28;45400;-72
2023/05/11 06:16:43;;;;;;;;;2.00;2.00;;;;;;;;4990385;28;45344;-72
2023/05/11 06:19:08;;;;;;;;;1.50;1.50;;;;;;;;4994006;28;45620;-72
2023/05/11 06:21:34;;;;;;;;;3.00;2.25;;;;;;;;4996086;28;45410;-72
2023/05/11 06:23:59;;;;;;;;;5.50;3.75;;;;;;;;4998077;28;45415;-72
2023/05/11 06:26:24;;;;;;;;;3.00;3.00;;;;;;;;4997803;28;45320;-71
2023/05/11 06:28:51;;;;;;;;;4.33;3.00;;;;;;;;4997741;28;45927;-72
2023/05/11 06:31:16;;;;;;;;;3.00;2.00;;;;;;;;4997743;28;45428;-72
2023/05/11 06:33:41;;;;;;;;;3.75;3.75;;;;;;;;4997689;28;45236;-72
2023/05/11 06:36:06;;;;;;;;;3.00;1.50;;;;;;;;4998046;28;45309;-72
2023/05/11 06:38:32;;;;;;;;;3.00;1.67;;;;;;;;4997857;28;45322;-72
2023/05/11 06:40:57;;;;;;;;;2.00;2.00;;;;;;;;4997619;28;45436;-71
2023/05/11 06:43:22;;;;;;;;;4.00;2.75;;;;;;;;4998320;28;45306;-70
2023/05/11 06:45:47;;;;;;;;;3.00;3.00;;;;;;;;4996994;28;45296;-72
2023/05/11 06:48:13;;;;;;;;;2.00;2.00;;;;;;;;4996657;28;46329;-71
2023/05/11 06:50:38;;;;;;;;;4.33;4.00;;;;;;;;4997104;28;45353;-72
2023/05/11 06:53:03;;;;;;;;;3.33;2.00;;;;;;;;4997340;28;45604;-71
2023/05/11 06:55:29;;;;;;;;;3.00;2.33;;;;;;;;4997156;28;45609;-71
2023/05/11 06:57:54;;;;;;;;;3.75;2.75;;;;;;;;4996884;28;46325;-71
2023/05/11 07:00:19;;;;;;;;;4.00;2.00;;;;;;;;4996974;28;45438;-70
2023/05/11 07:02:44;;;;;;;;;5.25;2.75;;;;;;;;4979185;28;45444;-71
2023/05/11 07:05:11;;;;;;;;;3.00;3.00;;;;;;;;4997127;28;45471;-71
2023/05/11 07:07:36;;;;;;;;;4.00;4.00;;;;;;;;4996860;28;47165;-70
2023/05/11 07:10:01;;;;;;;;;5.25;3.75;;;;;;;;4995542;28;45378;-71
2023/05/11 07:12:26;;;;;;;;;5.00;4.00;;;;;;;;4996891;28;45384;-71
2023/05/11 07:14:51;;;;;;;;;5.00;5.00;;;;;;;;4996739;28;45317;-71
2023/05/11 07:17:17;;;;;;;;;4.00;2.50;;;;;;;;4996505;28;46101;-71
2023/05/11 07:19:43;;;;;;;;;4.25;4.00;;;;;;;;4995800;28;46066;-71
2023/05/11 07:22:08;;;;;;;;;5.00;5.00;;;;;;;;4996740;28;45471;-71
2023/05/11 07:24:33;;;;;;;;;3.75;3.50;;;;;;;;4997039;28;45382;-71
2023/05/11 07:26:59;;;;;;;;;4.25;4.25;;;;;;;;4995601;28;47289;-70
2023/05/11 07:29:24;;;;;;;;;6.50;4.25;;;;;;;;4996278;28;45335;-71
2023/05/11 07:31:50;;;;;;;;;5.75;5.00;;;;;;;;4996421;28;45418;-72
2023/05/11 07:34:15;;;;;;;;;4.75;4.75;;;;;;;;4996601;28;45469;-72
2023/05/11 07:36:40;;;;;;;;;4.50;4.50;;;;;;;;4996604;28;46298;-72
2023/05/11 07:39:06;;;;;;;;;6.50;3.25;;;;;;;;4996993;28;45325;-72
2023/05/11 07:41:31;;;;;;;;;5.50;5.00;;;;;;;;4996964;28;45463;-72
2023/05/11 07:43:58;;;;;;;;;4.00;4.00;;;;;;;;4996680;28;45412;-72
2023/05/11 07:46:23;;;;;;;;;7.00;6.00;;;;;;;;4996409;28;45296;-72
2023/05/11 07:48:49;;;;;;;;;5.00;4.00;;;;;;;;4996543;28;45492;-71
2023/05/11 07:51:14;;;;;;;;;5.50;4.50;;;;;;;;4996694;28;45664;-72
2023/05/11 07:53:39;;;;;;;;;4.00;4.00;;;;;;;;4996417;28;45434;-72
2023/05/11 07:56:04;;;;;;;;;4.00;4.00;;;;;;;;4996357;28;45478;-71
2023/05/11 07:58:30;;;;;;;;;5.75;4.00;;;;;;;;4996247;28;45432;-71
2023/05/11 08:00:55;;;;;;;;;5.25;4.00;;;;;;;;4996318;28;45430;-71
2023/05/11 08:03:21;;;;;;;;;6.25;4.25;;;;;;;;4996528;28;45466;-72
2023/05/11 08:05:46;;;;;;;;;4.75;4.00;;;;;;;;4996284;28;46498;-71
2023/05/11 08:08:11;;;;;;;;;6.50;5.00;;;;;;;;4996276;28;45486;-72
2023/05/11 08:10:37;;;;;;;;;5.50;5.50;;;;;;;;4996582;28;45769;-72
2023/05/11 08:13:02;;;;;;;;;4.50;4.00;;;;;;;;4996389;28;45493;-72
2023/05/11 08:15:27;;;;;;;;;5.00;5.00;;;;;;;;4995945;28;45997;-72
2023/05/11 08:17:53;;;;;;;;;3.67;3.67;;;;;;;;4996185;28;45794;-72
2023/05/11 08:20:18;;;;;;;;;8.00;5.00;;;;;;;;4996511;28;45451;-72
2023/05/11 08:22:43;;;;;;;;;4.00;4.00;;;;;;;;4996005;28;45359;-72
2023/05/11 08:25:08;;;;;;;;;6.00;5.00;;;;;;;;4995863;28;46130;-72
2023/05/11 08:27:34;;;;;;;;;6.75;4.50;;;;;;;;4996124;28;45408;-72
2023/05/11 08:29:59;;;;;;;;;7.50;5.00;;;;;;;;4995946;28;45423;-71
2023/05/11 08:32:25;;;;;;;;;3.67;3.67;;;;;;;;4994643;28;45629;-70
2023/05/11 08:34:51;;;;;;;;;5.25;4.75;;;;;;;;4995548;28;47458;-72
2023/05/11 08:37:16;;;;;;;;;6.50;6.50;;;;;;;;4995892;28;45369;-72
2023/05/11 08:39:41;;;;;;;;;5.00;5.00;;;;;;;;4995869;28;45490;-73
2023/05/11 08:42:08;;;;;;;;;7.00;5.00;;;;;;;;4994653;28;45324;-72
2023/05/11 08:44:36;;;;;;;;;7.00;7.00;;;;;;;;4995453;28;45306;-72
2023/05/11 08:47:04;;;;;;;;;5.75;4.25;;;;;;;;4995476;28;45463;-72
2023/05/11 08:49:29;;;;;;;;;4.50;4.50;;;;;;;;4995801;28;45320;-72
2023/05/11 08:51:55;;;;;;;;;5.50;5.00;;;;;;;;4995858;28;45414;-72
2023/05/11 08:54:20;;;;;;;;;5.00;5.00;;;;;;;;4995514;28;46095;-72
2023/05/11 08:56:46;;;;;;;;;7.50;5.00;;;;;;;;4995301;28;45548;-71
2023/05/11 08:59:12;;;;;;;;;5.00;5.00;;;;;;;;4995642;28;45458;-72
2023/05/11 09:01:39;;;;;;;;;6.00;6.00;;;;;;;;4995474;28;45494;-72
2023/05/11 09:04:05;;;;;;;;;7.75;5.00;;;;;;;;4995360;28;46382;-72
2023/05/11 09:06:31;;;;;;;;;5.33;3.33;;;;;;;;4995262;28;45504;-72
2023/05/11 09:08:56;;;;;;;;;6.25;3.25;;;;;;;;4995535;28;45454;-72
2023/05/11 09:11:22;;;;;;;;;5.00;5.00;;;;;;;;4995533;28;45428;-72
2023/05/11 09:13:47;;;;;;;;;4.75;3.75;;;;;;;;4995160;28;45458;-73
2023/05/11 09:16:12;;;;;;;;;4.33;4.00;;;;;;;;4995251;28;45408;-72
2023/05/11 09:18:47;;;;;;;;;9.00;4.33;;;;;;;;4995347;28;45452;-72
2023/05/11 09:21:12;;;;;;;;;4.67;4.00;;;;;;;;4995396;28;45399;-72
2023/05/11 09:23:39;;;;;;;;;6.25;4.00;;;;;;;;4995197;28;46260;-72
2023/05/11 09:26:11;;;;;;;;;5.75;5.75;;;;;;;;4995281;28;45396;-72
2023/05/11 09:28:37;;;;;;;;;3.33;3.33;;;;;;;;4993764;28;45453;-71
2023/05/11 09:31:02;;;;;;;;;4.00;3.00;;;;;;;;4995395;28;45407;-73
2023/05/11 09:33:27;;;;;;;;;3.00;3.00;;;;;;;;4995131;28;47354;-72
2023/05/11 09:35:52;;;;;;;;;2.00;2.00;;;;;;;;4995442;28;45400;-73
2023/05/11 09:38:19;;;;;;;;;4.00;4.00;;;;;;;;4995721;28;45443;-72
2023/05/11 09:40:52;;;;;;;;;2.67;2.67;;;;;;;;4995324;28;45431;-73
2023/05/11 09:43:27;;;;;;;;;5.00;3.00;;;;;;;;4994773;28;45703;-72
2023/05/11 09:45:53;;;;;;;;;3.33;2.33;;;;;;;;4995324;28;45532;-72
2023/05/11 09:48:18;;;;;;;;;2.00;2.00;;;;;;;;4996014;28;45356;-72
2023/05/11 09:50:44;;;;;;;;;6.67;5.00;;;;;;;;4996432;28;45426;-72
2023/05/11 09:53:09;;;;;;;;;3.67;3.33;;;;;;;;4996360;28;46342;-72
2023/05/11 09:55:35;;;;;;;;;4.00;4.00;;;;;;;;4997971;28;45445;-72
2023/05/11 09:58:01;;;;;;;;;3.00;3.00;;;;;;;;4997618;28;45438;-72
2023/05/11 10:00:26;;;;;;;;;3.33;3.33;;;;;;;;4998061;28;45453;-72
2023/05/11 10:03:02;;;;;;;;;4.67;3.00;;;;;;;;4998253;28;45387;-72
2023/05/11 10:05:27;;;;;;;;;5.67;4.00;;;;;;;;4998451;28;45516;-71
2023/05/11 10:07:57;;;;;;;;;3.33;3.33;;;;;;;;4997479;28;45391;-72
2023/05/11 10:10:23;;;;;;;;;4.00;2.00;;;;;;;;4998703;28;45398;-72
2023/05/11 10:12:50;;;;;;;;;3.67;3.67;;;;;;;;4996665;28;46468;-72
2023/05/11 10:15:17;;;;;;;;;2.00;2.00;;;;;;;;4998142;28;45344;-72
2023/05/11 10:17:43;;;;;;;;;2.00;2.00;;;;;;;;5000257;28;45175;-70
2023/05/11 10:20:10;;;;;;;;;4.67;3.33;;;;;;;;4997865;28;45715;-72
2023/05/11 10:22:35;;;;;;;;;4.00;3.00;;;;;;;;4997837;28;45670;-72
2023/05/11 10:25:01;;;;;;;;;4.00;3.00;;;;;;;;4997683;28;45396;-72
2023/05/11 10:27:26;;;;;;;;;4.67;4.67;;;;;;;;4997877;28;45413;-72
2023/05/11 10:29:52;;;;;;;;;2.00;2.00;;;;;;;;4996893;28;45570;-72
2023/05/11 10:32:17;;;;;;;;;5.33;4.00;;;;;;;;4997790;28;46644;-72
2023/05/11 10:34:43;;;;;;;;;2.00;1.33;;;;;;;;4997774;28;45542;-73
2023/05/11 10:37:09;;;;;;;;;2.33;2.33;;;;;;;;4998133;28;45315;-73
2023/05/11 10:39:38;;;;;;;;;5.67;4.00;;;;;;;;4997984;28;45459;-72
2023/05/11 10:42:24;;;;;;;;;4.00;2.00;;;;;;;;4997600;28;47260;-72
2023/05/11 10:44:49;;;;;;;;;2.67;2.00;;;;;;;;4997368;28;45524;-72
2023/05/11 10:47:33;;;;;;;;;2.67;2.67;;;;;;;;4997819;28;45458;-71
2023/05/11 10:50:11;;;;;;;;;3.33;2.00;;;;;;;;4997766;28;45577;-73
2023/05/11 10:52:46;;;;;;;;;4.00;3.00;;;;;;;;4997336;28;46783;-72
2023/05/11 10:55:11;;;;;;;;;2.33;2.33;;;;;;;;4997288;28;45435;-71
2023/05/11 10:57:59;;;;;;;;;2.00;1.67;;;;;;;;4997333;28;45439;-71
2023/05/11 11:00:30;;;;;;;;;1.67;1.67;;;;;;;;4995799;28;45558;-71
2023/05/11 11:03:07;;;;;;;;;4.00;2.00;;;;;;;;4997238;28;46627;-71
2023/05/11 11:05:33;;;;;;;;;1.33;1.33;;;;;;;;4996359;28;45449;-71
2023/05/11 11:07:59;;;;;;;;;2.33;2.33;;;;;;;;4997443;28;45606;-72
2023/05/11 11:10:32;;;;;;;;;2.00;2.00;;;;;;;;5016766;28;45363;-72
2023/05/11 11:13:05;;;;;;;;;3.00;3.00;;;;;;;;5015498;28;48101;-71
2023/05/11 11:15:49;;;;;;;;;4.00;2.67;;;;;;;;5011142;28;45515;-70
2023/05/11 11:18:20;;;;;;;;;4.25;3.25;;;;;;;;4997166;28;45547;-71
2023/05/11 11:20:47;;;;;;;;;2.75;2.75;;;;;;;;4996893;28;45351;-71
2023/05/11 11:23:31;;;;;;;;;1.33;1.33;;;;;;;;4996915;28;46101;-71
2023/05/11 11:25:56;;;;;;;;;2.67;2.67;;;;;;;;5002427;28;45513;-72
2023/05/11 11:28:22;;;;;;;;;1.75;1.75;;;;;;;;4975132;28;45750;-71
2023/05/11 11:30:47;;;;;;;;;2.67;2.67;;;;;;;;4992920;28;45521;-71
2023/05/11 11:33:12;;;;;;;;;3.00;3.00;;;;;;;;4989497;28;45699;-73
2023/05/11 11:35:40;;;;;;;;;2.67;2.67;;;;;;;;4996354;28;45340;-72
2023/05/11 11:38:06;;;;;;;;;1.67;1.67;;;;;;;;4984889;28;45506;-72
2023/05/11 11:40:45;;;;;;;;;2.00;2.00;;;;;;;;4995502;28;45459;-71
2023/05/11 11:43:18;;;;;;;;;1.33;0.00;;;;;;;;4992834;28;47374;-70
2023/05/11 11:45:59;;;;;;;;;2.00;2.00;;;;;;;;4979684;28;45475;-71
2023/05/11 11:48:27;;;;;;;;;2.00;1.00;;;;;;;;4997478;28;45500;-71
2023/05/11 11:51:19;;;;;;;;;1.67;0.33;;;;;;;;5007697;28;45489;-71
2023/05/11 11:53:47;;;;;;;;;3.67;1.67;;;;;;;;4991246;28;45735;-71
2023/05/11 11:56:12;;;;;;;;;3.00;2.00;;;;;;;;4999809;28;45627;-69
2023/05/11 11:58:41;;;;;;;;;2.33;1.33;;;;;;;;5008211;28;45541;-72
2023/05/11 12:01:06;;;;;;;;;1.33;1.33;;;;;;;;5003281;28;45565;-71
2023/05/11 12:03:35;;;;;;;;;5.00;3.00;;;;;;;;5001164;28;45510;-72
2023/05/11 12:06:01;;;;;;;;;2.00;2.00;;;;;;;;4996082;28;45315;-71
2023/05/11 12:08:28;;;;;;;;;1.67;1.67;;;;;;;;5001569;28;45705;-71
2023/05/11 12:10:53;;;;;;;;;1.33;1.33;;;;;;;;4996158;28;45495;-70
2023/05/11 12:13:19;;;;;;;;;3.00;3.00;;;;;;;;4996225;28;45599;-71
2023/05/11 12:15:45;;;;;;;;;2.67;2.00;;;;;;;;4998041;28;45363;-72
2023/05/11 12:18:20;;;;;;;;;1.67;1.67;;;;;;;;5015154;28;45482;-71
2023/05/11 12:20:45;;;;;;;;;1.75;1.75;;;;;;;;5000630;28;45535;-71
2023/05/11 12:23:11;;;;;;;;;1.67;1.00;;;;;;;;5007754;28;46083;-71
2023/05/11 12:25:36;;;;;;;;;3.33;2.00;;;;;;;;4995663;28;45448;-71
2023/05/11 12:28:01;;;;;;;;;2.00;2.00;;;;;;;;4996064;28;45308;-71
2023/05/11 12:30:31;;;;;;;;;1.00;1.00;;;;;;;;4996211;28;45522;-71
2023/05/11 12:32:58;;;;;;;;;1.67;1.00;;;;;;;;4994911;28;47136;-71
2023/05/11 12:35:24;;;;;;;;;3.00;3.00;;;;;;;;4995701;28;45423;-71
2023/05/11 12:37:50;;;;;;;;;1.33;1.33;;;;;;;;4995692;28;45356;-71
2023/05/11 12:40:15;;;;;;;;;1.00;1.00;;;;;;;;4995939;28;45411;-70
2023/05/11 12:42:50;;;;;;;;;1.33;1.00;;;;;;;;4995495;28;46141;-71
2023/05/11 12:45:16;;;;;;;;;2.67;2.67;;;;;;;;4995596;28;45447;-71
2023/05/11 12:47:42;;;;;;;;;1.67;1.67;;;;;;;;4995676;28;45304;-71
2023/05/11 12:50:08;;;;;;;;;2.33;2.33;;;;;;;;4995600;28;45639;-71
2023/05/11 12:52:33;;;;;;;;;4.67;2.67;;;;;;;;4993753;28;47312;-71
2023/05/11 12:54:59;;;;;;;;;1.67;1.67;;;;;;;;4993589;28;45496;-71
2023/05/11 12:57:26;;;;;;;;;1.67;1.67;;;;;;;;4995744;28;45282;-70
2023/05/11 13:00:08;;;;;;;;;2.00;1.00;;;;;;;;4995759;28;45335;-70
2023/05/11 13:02:34;;;;;;;;;3.00;1.00;;;;;;;;4995235;28;45567;-70
2023/05/11 13:05:08;;;;;;;;;4.33;2.00;;;;;;;;4995149;28;45409;-70
2023/05/11 13:07:33;;;;;;;;;2.00;2.00;;;;;;;;4995924;28;45407;-70
2023/05/11 13:10:00;;;;;;;;;2.33;1.67;;;;;;;;4995419;28;45426;-70
2023/05/11 13:12:25;;;;;;;;;3.00;3.00;;;;;;;;4995524;28;46650;-71
2023/05/11 13:15:13;;;;;;;;;1.33;1.33;;;;;;;;4995298;28;45406;-71
2023/05/11 13:17:40;;;;;;;;;3.00;3.00;;;;;;;;4994515;28;45455;-70
2023/05/11 13:20:14;;;;;;;;;1.67;1.67;;;;;;;;4995425;28;45507;-70
2023/05/11 13:22:40;;;;;;;;;2.00;2.00;;;;;;;;4994088;28;46675;-71
2023/05/11 13:25:05;;;;;;;;;2.67;1.67;;;;;;;;4994908;28;45451;-70
2023/05/11 13:27:31;;;;;;;;;1.00;1.00;;;;;;;;4995221;28;45510;-71
2023/05/11 13:29:56;;;;;;;;;2.00;1.67;;;;;;;;4994063;28;45579;-70
2023/05/11 13:32:21;;;;;;;;;2.00;1.67;;;;;;;;4985881;28;46138;-70
2023/05/11 13:34:46;;;;;;;;;3.00;1.00;;;;;;;;4985073;28;45617;-70
2023/05/11 13:37:11;;;;;;;;;1.00;1.00;;;;;;;;4994655;28;45356;-70
2023/05/11 13:39:36;;;;;;;;;1.00;1.00;;;;;;;;4995021;28;45514;-71
2023/05/11 13:42:02;;;;;;;;;2.00;2.00;;;;;;;;4988865;28;46537;-70
2023/05/11 13:44:28;;;;;;;;;2.67;1.33;;;;;;;;4978228;28;45508;-70
2023/05/11 13:46:54;;;;;;;;;2.00;0.67;;;;;;;;4991859;28;45560;-70
2023/05/11 13:49:19;;;;;;;;;1.33;1.33;;;;;;;;4990225;28;45492;-71
2023/05/11 13:51:44;;;;;;;;;1.00;1.00;;;;;;;;4982387;28;46293;-71
2023/05/11 13:54:15;;;;;;;;;2.00;2.00;;;;;;;;4992942;28;45537;-74
2023/05/11 13:56:41;;;;;;;;;2.00;2.00;;;;;;;;4994212;28;45371;-70
2023/05/11 13:59:06;;;;;;;;;3.67;3.67;;;;;;;;4976816;28;45372;-70
2023/05/11 14:01:31;;;;;;;;;3.00;3.00;;;;;;;;4987290;28;47213;-70
2023/05/11 14:03:58;;;;;;;;;1.67;1.67;;;;;;;;4983660;28;45320;-70
2023/05/11 14:06:23;;;;;;;;;0.00;0.00;;;;;;;;4981741;28;45445;-69
2023/05/11 14:08:49;;;;;;;;;4.00;2.00;;;;;;;;4991548;28;45367;-72
2023/05/11 14:11:14;;;;;;;;;1.33;1.33;;;;;;;;4983270;28;45607;-71
2023/05/11 14:13:39;;;;;;;;;1.00;1.00;;;;;;;;4994105;28;45422;-72
2023/05/11 14:16:05;;;;;;;;;1.33;1.33;;;;;;;;4991236;28;45760;-72
2023/05/11 14:18:30;;;;;;;;;3.67;3.00;;;;;;;;4980037;28;45513;-72
2023/05/11 14:20:55;;;;;;;;;1.00;1.00;;;;;;;;4985142;28;46294;-72
2023/05/11 14:23:21;;;;;;;;;1.00;1.00;;;;;;;;4989593;28;46318;-71
2023/05/11 14:25:46;;;;;;;;;2.00;2.00;;;;;;;;4994274;28;45521;-71
2023/05/11 14:28:11;;;;;;;;;2.00;2.00;;;;;;;;4976316;28;45623;-71
2023/05/11 14:30:36;;;;;;;;;3.00;2.00;;;;;;;;4993779;28;45665;-71
2023/05/11 14:33:01;;;;;;;;;2.33;1.00;;;;;;;;4984271;28;45391;-71
2023/05/11 14:35:26;;;;;;;;;3.33;2.00;;;;;;;;4985909;28;45471;-70
2023/05/11 14:37:53;;;;;;;;;4.00;3.00;;;;;;;;4993910;28;45433;-70
2023/05/11 14:40:18;;;;;;;;;2.33;2.00;;;;;;;;4985571;28;47540;-70